Sherman, TX (75090)

5:20 PM CST on February 06, 2016 (GMT -0600)
Starlight | | Change Station
CLOSE
Current Station
Personal Weather Station
Location: Sherman, TX
Elevation: 807 ft
Nearby Weather Stations

Elev 807 ft 33.66 °N, 96.60 °W | Updated 6 minutes ago

Clear
Clear
52.7 °F
Feels Like 52.7 °F
N
4.2
Wind Variable Wind from WSW

Today
High -- | Low -- °F
--% Chance of Precip.
Yesterday
High -- | Low -- °F
Precip. -- in
Pressure 30.34 in
Visibility 10.0 miles
Clouds Clear
Dew Point 34 °F
Humidity 49%
Rainfall 0.23 in
Snow Depth Not available.
7:19 AM 6:02 PM
Waning Crescent, 4% visible
METAR KGYI 062315Z AUTO 00000KT 10SM CLR 11/00 A3034 RMK AO2 T01101002
Pressure 30.34 in
Visibility 10.0 miles
Clouds Clear
Dew Point 34 °F
Humidity 49%
Rainfall 0.23 in
Snow Depth Not available.
7:19 AM 6:02 PM
Waning Crescent, 4% visible
METAR KGYI 062315Z AUTO 00000KT 10SM CLR 11/00 A3034 RMK AO2 T01101002

10-Day Weather Forecast

Almanac

Astronomy

Feb. 06, 2016 Rise Set
Actual Time
Civil Twilight
Nautical Twilight
Astronomical Twilight
Moon
Length of Visible Light
Length of Day
Tomorrow will be .
, % of the Moon is Illuminated

Today's Extremes

State Highs State Lows

Community

WunderPhotos

Upload Photos

1,891,092 photos uploaded!

WunderBlog® & News

Nearby

Air Quality

  Air Quality AQ Index Pollutant
Not available.

Snow Depth

Station Depth Elevation

Earthquake Activity

City Distance Mag. Time & Date
Minimum magnitude displayed is 2.5.

Coastal Water Temperatures

Place Temperature

Stations

Nearby Weather Stations

Station Location Temp. Windchill Dew Point Humidity Wind Precip. Elev Updated Type
                   

Watches & Warnings

There are currently no watches in effect.